Time;durP1;ratioP1;P1;durP2;ratioP2;P2;SDS_P1;SDS_P2;PMS_P1;PMS_P2;Temp;Humidity;BMP_temperature;BMP_pressure;BME280_temperature;BME280_humidity;BME280_pressure;Samples;Min_cycle;Max_cycle;Signal;HPM_P1;HPM_P2
2022/11/29 00:00:00;;;;;;;;;;;7.40;77.50;;;;;;5033940;28;20300;-88
2022/11/29 00:02:26;;;;;;;;;;;7.40;77.80;;;;;;5033695;28;20409;-88
2022/11/29 00:04:51;;;;;;;;;;;7.30;78.80;;;;;;5032449;28;20009;-88
2022/11/29 00:07:17;;;;;;;;;;;7.20;78.80;;;;;;5033820;28;19981;-88
2022/11/29 00:09:43;;;;;;;;;;;7.20;79.20;;;;;;5033776;28;19939;-88
2022/11/29 00:12:11;;;;;;;;;;;7.10;79.20;;;;;;5033722;28;19962;-88
2022/11/29 00:14:37;;;;;;;;;;;7.10;78.80;;;;;;5033316;28;19971;-88
2022/11/29 00:17:03;;;;;;;;;;;7.10;78.60;;;;;;5033701;28;20365;-88
2022/11/29 00:19:29;;;;;;;;;;;7.20;78.90;;;;;;5033201;28;19957;-88
2022/11/29 00:21:55;;;;;;;;;;;7.20;78.70;;;;;;5033820;28;19945;-88
2022/11/29 00:24:21;;;;;;;;;;;7.20;78.40;;;;;;5049412;28;20386;-88
2022/11/29 00:26:46;;;;;;;;;;;7.10;78.60;;;;;;5053367;28;20416;-88
2022/11/29 00:29:12;;;;;;;;;;;7.20;78.50;;;;;;5053026;28;19952;-88
2022/11/29 00:31:38;;;;;;;;;;;7.20;78.40;;;;;;5052371;28;19965;-88
2022/11/29 00:34:07;;;;;;;;;;;7.20;79.70;;;;;;5053273;28;19946;-88
2022/11/29 00:36:33;;;;;;;;;;;7.10;81.50;;;;;;5053200;28;19942;-88
2022/11/29 00:38:59;;;;;;;;;;;7.00;82.00;;;;;;5052955;28;19958;-88
2022/11/29 00:41:25;;;;;;;;;;;6.80;81.40;;;;;;5053196;28;20042;-88
2022/11/29 00:43:50;;;;;;;;;;;6.90;81.20;;;;;;5053177;28;19937;-88
2022/11/29 00:46:16;;;;;;;;;;;6.90;82.00;;;;;;5034525;28;20413;-88
2022/11/29 00:48:41;;;;;;;;;;;6.80;82.10;;;;;;5053053;28;19945;-88
2022/11/29 00:51:07;;;;;;;;;;;6.80;82.90;;;;;;5052976;28;20409;-88
2022/11/29 00:53:33;;;;;;;;;;;6.80;83.30;;;;;;5052901;28;19953;-88
2022/11/29 00:55:59;;;;;;;;;;;6.80;83.00;;;;;;5052797;28;19943;-88
2022/11/29 00:58:24;;;;;;;;;;;6.70;83.00;;;;;;5052965;28;19945;-88
2022/11/29 01:00:51;;;;;;;;;;;6.80;82.80;;;;;;5052805;28;19942;-88
2022/11/29 01:03:17;;;;;;;;;;;6.70;82.90;;;;;;5052963;28;20342;-88
2022/11/29 01:05:43;;;;;;;;;;;6.90;81.80;;;;;;5052510;28;19949;-88
2022/11/29 01:08:09;;;;;;;;;;;6.90;81.10;;;;;;5052681;28;19944;-88
2022/11/29 01:10:34;;;;;;;;;;;6.90;81.20;;;;;;5052923;28;19988;-88
2022/11/29 01:13:00;;;;;;;;;;;6.90;80.90;;;;;;5052654;28;19959;-88
2022/11/29 01:15:26;;;;;;;;;;;7.00;80.80;;;;;;5052690;28;19944;-88
2022/11/29 01:17:52;;;;;;;;;;;7.00;80.50;;;;;;5052785;28;20276;-88
2022/11/29 01:20:17;;;;;;;;;;;7.10;80.40;;;;;;5053014;28;19940;-88
2022/11/29 01:22:43;;;;;;;;;;;7.20;80.20;;;;;;5052760;28;19957;-88
2022/11/29 01:25:09;;;;;;;;;;;7.20;80.30;;;;;;5052461;28;20386;-88
2022/11/29 01:27:35;;;;;;;;;;;7.10;80.50;;;;;;5052682;28;19944;-88
2022/11/29 01:30:00;;;;;;;;;;;7.30;80.20;;;;;;5052731;28;20396;-88
2022/11/29 01:32:26;;;;;;;;;;;7.30;80.10;;;;;;5052027;28;20424;-88
2022/11/29 01:34:52;;;;;;;;;;;7.30;80.20;;;;;;5034575;28;20364;-88
2022/11/29 01:37:17;;;;;;;;;;;7.30;80.20;;;;;;5052603;28;19942;-88
2022/11/29 01:39:43;;;;;;;;;;;7.30;80.50;;;;;;5052614;28;19940;-88
2022/11/29 01:42:12;;;;;;;;;;;7.30;80.30;;;;;;5052191;28;19955;-88
2022/11/29 01:44:37;;;;;;;;;;;7.30;80.40;;;;;;5038508;28;20449;-88
2022/11/29 01:47:03;;;;;;;;;;;7.30;80.30;;;;;;5056400;28;19979;-88
2022/11/29 01:49:34;;;;;;;;;;;7.30;80.40;;;;;;5056390;28;20007;-88
2022/11/29 01:52:02;;;;;;;;;;;7.30;80.70;;;;;;5055903;28;19979;-88
2022/11/29 01:54:29;;;;;;;;;;;7.20;80.50;;;;;;5038298;28;19944;-88
2022/11/29 01:56:54;;;;;;;;;;;7.30;80.30;;;;;;5055503;28;20002;-88
2022/11/29 01:59:25;;;;;;;;;;;7.30;80.50;;;;;;5056402;28;19941;-88
2022/11/29 02:01:50;;;;;;;;;;;7.30;80.50;;;;;;5055906;28;20446;-88
2022/11/29 02:04:16;;;;;;;;;;;7.30;80.50;;;;;;5055987;28;19976;-89
2022/11/29 02:06:42;;;;;;;;;;;7.30;80.70;;;;;;5038114;28;19938;-88
2022/11/29 02:09:16;;;;;;;;;;;7.30;80.80;;;;;;5055953;28;19941;-88
2022/11/29 02:11:56;;;;;;;;;;;7.20;81.00;;;;;;5055594;28;20005;-88
2022/11/29 02:14:22;;;;;;;;;;;7.20;81.30;;;;;;5055087;28;19951;-88
2022/11/29 02:16:47;;;;;;;;;;;7.30;81.40;;;;;;5037705;28;19952;-89
2022/11/29 02:19:31;;;;;;;;;;;7.30;81.20;;;;;;5055813;28;20034;-88
2022/11/29 02:22:01;;;;;;;;;;;7.30;81.40;;;;;;5055695;28;19942;-89
2022/11/29 02:24:41;;;;;;;;;;;7.30;81.50;;;;;;5055228;28;20323;-88
2022/11/29 02:27:09;;;;;;;;;;;7.30;81.50;;;;;;5055664;28;19941;-88
2022/11/29 02:29:37;;;;;;;;;;;7.20;81.50;;;;;;5055600;28;19952;-88
2022/11/29 02:32:22;;;;;;;;;;;7.20;81.90;;;;;;5037584;28;20372;-88
2022/11/29 02:35:25;;;;;;;;;;;7.20;82.10;;;;;;5055208;28;19954;-88
2022/11/29 02:38:10;;;;;;;;;;;7.20;82.00;;;;;;4974442;28;20393;-88
2022/11/29 02:40:44;;;;;;;;;;;7.20;82.10;;;;;;4974426;28;19938;-88
2022/11/29 02:43:21;;;;;;;;;;;7.20;82.10;;;;;;5026566;28;19955;-88
2022/11/29 02:45:57;;;;;;;;;;;7.20;82.20;;;;;;5055083;28;20458;-88
2022/11/29 02:48:45;;;;;;;;;;;7.10;82.30;;;;;;5055277;28;19959;-88
2022/11/29 02:51:21;;;;;;;;;;;7.00;82.80;;;;;;5054708;28;20001;-88
2022/11/29 02:53:46;;;;;;;;;;;7.10;82.80;;;;;;5054309;28;20060;-87
2022/11/29 02:56:30;;;;;;;;;;;7.00;82.80;;;;;;5054413;28;19991;-88
2022/11/29 02:59:12;;;;;;;;;;;7.00;83.10;;;;;;5037123;28;19941;-87
2022/11/29 03:01:53;;;;;;;;;;;7.00;83.00;;;;;;5054776;28;20028;-88
2022/11/29 03:04:18;;;;;;;;;;;6.90;83.00;;;;;;5054981;28;19934;-87
2022/11/29 03:07:10;;;;;;;;;;;6.90;83.50;;;;;;5054907;28;19966;-87
2022/11/29 03:10:02;;;;;;;;;;;7.00;83.20;;;;;;5050452;28;20039;-87
2022/11/29 03:12:30;;;;;;;;;;;7.00;83.40;;;;;;5023694;28;19965;-87
2022/11/29 03:14:58;;;;;;;;;;;6.90;83.70;;;;;;5054806;28;19956;-87
2022/11/29 03:17:34;;;;;;;;;;;6.90;83.70;;;;;;5054737;28;19948;-88
2022/11/29 03:20:05;;;;;;;;;;;6.90;83.90;;;;;;5054416;28;19939;-87
2022/11/29 03:22:49;;;;;;;;;;;6.90;84.00;;;;;;5054470;28;19971;-87
2022/11/29 03:25:30;;;;;;;;;;;6.90;84.00;;;;;;5054532;28;19942;-87
2022/11/29 03:28:06;;;;;;;;;;;6.90;84.50;;;;;;5054533;28;19935;-87
2022/11/29 03:30:35;;;;;;;;;;;6.90;84.20;;;;;;5053745;28;19988;-87
2022/11/29 03:33:11;;;;;;;;;;;6.90;84.20;;;;;;5054353;28;20061;-87
2022/11/29 03:35:46;;;;;;;;;;;6.90;84.60;;;;;;5054439;28;19946;-87
2022/11/29 03:38:17;;;;;;;;;;;6.90;84.40;;;;;;5054234;28;19945;-86
2022/11/29 03:41:09;;;;;;;;;;;6.90;84.40;;;;;;5053830;28;19941;-86
2022/11/29 03:43:41;;;;;;;;;;;6.80;84.60;;;;;;5050143;28;19938;-86
2022/11/29 03:46:13;;;;;;;;;;;6.80;84.70;;;;;;5054178;28;20038;-88
2022/11/29 03:48:42;;;;;;;;;;;6.80;84.80;;;;;;5053291;28;20079;-86
2022/11/29 03:51:13;;;;;;;;;;;6.80;85.30;;;;;;5053995;28;19946;-88
2022/11/29 03:53:58;;;;;;;;;;;6.80;85.00;;;;;;5053840;28;19973;-88
2022/11/29 03:56:35;;;;;;;;;;;6.90;84.90;;;;;;5053632;28;19946;-88
2022/11/29 03:59:10;;;;;;;;;;;6.90;85.10;;;;;;5053753;28;19973;-88
2022/11/29 04:01:54;;;;;;;;;;;6.80;85.10;;;;;;5053335;28;19974;-88
2022/11/29 04:04:34;;;;;;;;;;;6.70;85.30;;;;;;5053810;28;20024;-88
2022/11/29 04:07:04;;;;;;;;;;;6.80;85.60;;;;;;5053307;28;19945;-88
2022/11/29 04:09:48;;;;;;;;;;;6.80;85.40;;;;;;5053722;28;19949;-88
2022/11/29 04:12:24;;;;;;;;;;;6.80;85.40;;;;;;5053618;28;19968;-87
2022/11/29 04:15:09;;;;;;;;;;;6.80;85.40;;;;;;5035715;28;20462;-87
2022/11/29 04:17:51;;;;;;;;;;;6.80;85.50;;;;;;5052917;28;19949;-88
2022/11/29 04:20:35;;;;;;;;;;;6.80;85.50;;;;;;5053332;28;19945;-88
2022/11/29 04:23:09;;;;;;;;;;;6.80;85.60;;;;;;5053052;28;19969;-88
2022/11/29 04:25:59;;;;;;;;;;;6.80;85.60;;;;;;5053383;28;19940;-88
2022/11/29 04:28:43;;;;;;;;;;;6.80;85.80;;;;;;5042908;28;20398;-87
2022/11/29 04:31:11;;;;;;;;;;;6.80;85.70;;;;;;5053084;28;20317;-88
2022/11/29 04:33:55;;;;;;;;;;;6.70;85.80;;;;;;5053337;28;19937;-88
2022/11/29 04:36:23;;;;;;;;;;;6.70;86.00;;;;;;5052881;28;19950;-88
2022/11/29 04:39:01;;;;;;;;;;;6.80;85.80;;;;;;5033364;28;19937;-87
2022/11/29 04:41:45;;;;;;;;;;;6.80;85.90;;;;;;5033289;28;19965;-88
2022/11/29 04:44:15;;;;;;;;;;;6.80;85.70;;;;;;5033276;28;19941;-87
2022/11/29 04:46:46;;;;;;;;;;;6.80;85.80;;;;;;5040378;28;20418;-87
2022/11/29 04:49:15;;;;;;;;;;;6.80;85.80;;;;;;5053007;28;19936;-87
2022/11/29 04:51:52;;;;;;;;;;;6.80;85.90;;;;;;5049742;28;20126;-88
2022/11/29 04:54:26;;;;;;;;;;;6.80;85.80;;;;;;5052982;28;20423;-88
2022/11/29 04:57:07;;;;;;;;;;;6.80;85.80;;;;;;5052762;28;20348;-88
2022/11/29 04:59:56;;;;;;;;;;;6.80;85.70;;;;;;5052806;28;19949;-88
2022/11/29 05:02:40;;;;;;;;;;;6.80;85.80;;;;;;5052898;28;20030;-88
2022/11/29 05:05:20;;;;;;;;;;;6.80;85.80;;;;;;5052993;28;19964;-88
2022/11/29 05:08:04;;;;;;;;;;;6.80;85.70;;;;;;5052515;28;19964;-88
2022/11/29 05:10:35;;;;;;;;;;;6.70;85.70;;;;;;5052447;28;19952;-88
2022/11/29 05:13:19;;;;;;;;;;;6.80;85.80;;;;;;5052140;28;19966;-88
2022/11/29 05:16:03;;;;;;;;;;;6.80;85.60;;;;;;5053137;28;19999;-88
2022/11/29 05:18:40;;;;;;;;;;;6.80;85.60;;;;;;5055099;28;19934;-88
2022/11/29 05:21:16;;;;;;;;;;;6.70;86.20;;;;;;5056572;28;19987;-88
2022/11/29 05:23:45;;;;;;;;;;;6.70;86.00;;;;;;5056050;28;20041;-88
2022/11/29 05:26:18;;;;;;;;;;;6.70;85.90;;;;;;5056860;28;19944;-88
2022/11/29 05:28:44;;;;;;;;;;;6.70;86.00;;;;;;5056760;28;19942;-88
2022/11/29 05:31:23;;;;;;;;;;;6.70;86.10;;;;;;5056621;28;20412;-88
2022/11/29 05:33:59;;;;;;;;;;;6.70;86.10;;;;;;5056663;28;20582;-88
2022/11/29 05:36:34;;;;;;;;;;;6.70;86.10;;;;;;5056648;28;19941;-88
2022/11/29 05:39:00;;;;;;;;;;;6.60;86.30;;;;;;5056585;28;19989;-88
2022/11/29 05:41:58;;;;;;;;;;;6.60;86.30;;;;;;5056397;28;19946;-88
2022/11/29 05:44:42;;;;;;;;;;;6.60;86.30;;;;;;5002969;28;19952;-88
2022/11/29 05:47:11;;;;;;;;;;;6.60;86.30;;;;;;5049235;28;19949;-88
2022/11/29 05:49:48;;;;;;;;;;;6.70;86.20;;;;;;5056370;28;19936;-88
2022/11/29 05:52:19;;;;;;;;;;;6.60;86.20;;;;;;5051885;28;19967;-88
2022/11/29 05:54:54;;;;;;;;;;;6.60;86.20;;;;;;5034968;28;20366;-89
2022/11/29 05:57:30;;;;;;;;;;;6.60;86.20;;;;;;5045928;28;20580;-88
2022/11/29 05:59:57;;;;;;;;;;;6.60;86.20;;;;;;5055463;28;20080;-89
2022/11/29 06:02:25;;;;;;;;;;;6.60;86.30;;;;;;5053692;28;19949;-89
2022/11/29 06:04:54;;;;;;;;;;;6.60;86.30;;;;;;5036107;28;20399;-89
2022/11/29 06:07:26;;;;;;;;;;;6.60;86.40;;;;;;5057545;28;19938;-89
2022/11/29 06:09:55;;;;;;;;;;;6.60;86.40;;;;;;5037861;28;19945;-89
2022/11/29 06:12:22;;;;;;;;;;;6.60;86.40;;;;;;5036338;28;20355;-89
2022/11/29 06:14:48;;;;;;;;;;;6.50;86.40;;;;;;5055715;28;19945;-89
2022/11/29 06:17:32;;;;;;;;;;;6.50;86.50;;;;;;5055031;28;20044;-89
2022/11/29 06:20:09;;;;;;;;;;;6.60;86.50;;;;;;5054936;28;19950;-89
2022/11/29 06:22:43;;;;;;;;;;;6.60;86.50;;;;;;5054130;28;20200;-89
2022/11/29 06:25:24;;;;;;;;;;;6.60;86.50;;;;;;5037567;28;19952;-90
2022/11/29 06:27:53;;;;;;;;;;;6.60;86.40;;;;;;5047838;28;19979;-89
2022/11/29 06:30:25;;;;;;;;;;;6.60;86.50;;;;;;5049912;28;19957;-90
2022/11/29 06:33:00;;;;;;;;;;;6.60;86.40;;;;;;5050039;28;19960;-89
2022/11/29 06:35:25;;;;;;;;;;;6.60;86.50;;;;;;5046967;28;19941;-89
2022/11/29 06:37:53;;;;;;;;;;;6.50;86.80;;;;;;5035852;28;19957;-89
2022/11/29 06:40:19;;;;;;;;;;;6.60;87.00;;;;;;5051162;28;19959;-88
2022/11/29 06:42:44;;;;;;;;;;;6.60;86.80;;;;;;5051701;28;19947;-89
2022/11/29 06:45:11;;;;;;;;;;;6.60;86.90;;;;;;5053121;28;19949;-89
2022/11/29 06:47:57;;;;;;;;;;;7.00;85.90;;;;;;5049296;28;19955;-89
2022/11/29 06:50:31;;;;;;;;;;;7.00;85.10;;;;;;5052140;28;20028;-89
2022/11/29 06:53:03;;;;;;;;;;;6.90;85.10;;;;;;5052063;28;19966;-89
2022/11/29 06:55:31;;;;;;;;;;;6.90;85.30;;;;;;5045421;28;20426;-89
2022/11/29 06:58:13;;;;;;;;;;;6.80;85.30;;;;;;5054028;28;19953;-89
2022/11/29 07:00:56;;;;;;;;;;;6.80;85.60;;;;;;5041486;28;19952;-90
2022/11/29 07:03:41;;;;;;;;;;;6.90;85.40;;;;;;5054856;28;19945;-89
2022/11/29 07:06:26;;;;;;;;;;;6.90;85.20;;;;;;5051933;28;19949;-89
2022/11/29 07:08:54;;;;;;;;;;;6.80;85.60;;;;;;5050154;28;19947;-90
2022/11/29 07:11:20;;;;;;;;;;;6.70;85.90;;;;;;5053585;28;19938;-88
2022/11/29 07:13:45;;;;;;;;;;;6.70;85.90;;;;;;5033542;28;19947;-88
2022/11/29 07:16:21;;;;;;;;;;;6.80;86.00;;;;;;5051327;28;19950;-94
2022/11/29 07:18:46;;;;;;;;;;;6.80;85.90;;;;;;5056902;28;19940;-94
2022/11/29 07:21:20;;;;;;;;;;;6.80;85.90;;;;;;5056401;28;19943;-95
2022/11/29 07:24:05;;;;;;;;;;;6.90;85.40;;;;;;5065528;23;19977;-94
2022/11/29 07:26:36;;;;;;;;;;;6.80;85.80;;;;;;5063000;28;19956;-93
2022/11/29 07:29:13;;;;;;;;;;;6.70;86.40;;;;;;5055608;28;20384;-93
2022/11/29 07:31:44;;;;;;;;;;;6.60;86.60;;;;;;5055159;28;19963;-94
2022/11/29 07:34:34;;;;;;;;;;;6.60;86.80;;;;;;5055432;28;19998;-93
2022/11/29 07:36:59;;;;;;;;;;;6.60;87.00;;;;;;5057227;28;20387;-94
2022/11/29 07:39:40;;;;;;;;;;;6.50;87.00;;;;;;5055058;28;19967;-93
2022/11/29 07:42:13;;;;;;;;;;;6.60;87.00;;;;;;5052501;28;19944;-88
2022/11/29 07:45:05;;;;;;;;;;;6.80;86.70;;;;;;5049200;28;20001;-90
2022/11/29 07:47:30;;;;;;;;;;;6.90;86.40;;;;;;5010549;28;20393;-89
2022/11/29 07:49:56;;;;;;;;;;;7.10;85.90;;;;;;5052896;28;20031;-89
2022/11/29 07:52:21;;;;;;;;;;;7.20;85.40;;;;;;5047711;28;20059;-89
2022/11/29 07:54:47;;;;;;;;;;;7.30;85.00;;;;;;5032046;28;19987;-89
2022/11/29 07:57:12;;;;;;;;;;;7.30;84.40;;;;;;5033706;28;20355;-88
2022/11/29 07:59:38;;;;;;;;;;;7.10;84.80;;;;;;5033443;28;20337;-89
2022/11/29 08:02:04;;;;;;;;;;;7.00;85.40;;;;;;5030870;28;20036;-88
2022/11/29 08:04:29;;;;;;;;;;;6.80;85.90;;;;;;5032184;28;19972;-88
2022/11/29 08:06:59;;;;;;;;;;;6.80;86.30;;;;;;5031590;28;19999;-88
2022/11/29 08:09:24;;;;;;;;;;;6.80;86.40;;;;;;5028447;28;20070;-89
2022/11/29 08:11:50;;;;;;;;;;;6.80;86.30;;;;;;5030164;28;20065;-88
2022/11/29 08:14:15;;;;;;;;;;;6.90;86.30;;;;;;5027425;28;19941;-88
2022/11/29 08:16:41;;;;;;;;;;;6.90;86.20;;;;;;5030042;28;19990;-89
2022/11/29 08:19:06;;;;;;;;;;;7.20;86.30;;;;;;5027707;28;19945;-89
2022/11/29 08:21:32;;;;;;;;;;;7.40;85.60;;;;;;5030769;28;19952;-89
2022/11/29 08:23:57;;;;;;;;;;;7.50;84.90;;;;;;5035156;28;20031;-89
2022/11/29 08:26:23;;;;;;;;;;;7.70;84.10;;;;;;5040955;28;20354;-89
2022/11/29 08:28:50;;;;;;;;;;;7.80;83.50;;;;;;5031451;28;19986;-88
2022/11/29 08:31:16;;;;;;;;;;;7.90;83.00;;;;;;5011750;28;19949;-89
2022/11/29 08:33:42;;;;;;;;;;;7.90;82.30;;;;;;5024693;28;20321;-89
2022/11/29 08:36:09;;;;;;;;;;;7.90;82.60;;;;;;5020675;28;19947;-89
2022/11/29 08:38:35;;;;;;;;;;;7.80;83.00;;;;;;5026697;28;19976;-88
2022/11/29 08:41:05;;;;;;;;;;;7.80;82.70;;;;;;5032013;28;20338;-89
2022/11/29 08:43:31;;;;;;;;;;;7.80;82.50;;;;;;5030097;28;20007;-88
2022/11/29 08:45:57;;;;;;;;;;;7.90;82.70;;;;;;5028591;28;20036;-88
2022/11/29 08:48:23;;;;;;;;;;;7.90;82.40;;;;;;5030523;28;19947;-89
2022/11/29 08:50:49;;;;;;;;;;;7.90;82.30;;;;;;5031061;28;19950;-89
2022/11/29 08:55:59;;;;;;;;;;;8.00;82.30;;;;;;5029412;28;20087;-88
2022/11/29 08:58:24;;;;;;;;;;;8.20;81.70;;;;;;5031712;28;20028;-88
2022/11/29 09:00:50;;;;;;;;;;;8.40;81.00;;;;;;5027471;28;20411;-89
2022/11/29 09:06:04;;;;;;;;;;;8.70;79.80;;;;;;5029649;28;20511;-89
2022/11/29 09:08:32;;;;;;;;;;;8.40;79.70;;;;;;5011925;28;19944;-89
2022/11/29 09:10:58;;;;;;;;;;;8.40;80.00;;;;;;5013793;28;20041;-89
2022/11/29 09:13:23;;;;;;;;;;;8.30;80.10;;;;;;5030775;28;20431;-89
2022/11/29 09:15:49;;;;;;;;;;;8.30;80.40;;;;;;5028526;28;19964;-89
2022/11/29 09:18:14;;;;;;;;;;;8.40;80.30;;;;;;5032334;28;20362;-89
2022/11/29 09:20:43;;;;;;;;;;;8.40;80.10;;;;;;5029574;28;20420;-89
2022/11/29 09:23:09;;;;;;;;;;;8.50;79.90;;;;;;5026546;28;19965;-89
2022/11/29 09:25:35;;;;;;;;;;;8.70;79.60;;;;;;5028935;28;19957;-90
2022/11/29 09:28:01;;;;;;;;;;;8.70;79.30;;;;;;5031860;28;20474;-89
2022/11/29 09:30:30;;;;;;;;;;;9.00;78.20;;;;;;5031277;28;19953;-89
2022/11/29 09:32:58;;;;;;;;;;;9.10;77.40;;;;;;5029186;28;20320;-89
2022/11/29 09:35:24;;;;;;;;;;;9.30;76.60;;;;;;5029361;28;19952;-89
2022/11/29 09:37:49;;;;;;;;;;;9.30;76.20;;;;;;5025211;28;19951;-89
2022/11/29 09:40:18;;;;;;;;;;;9.20;76.30;;;;;;5014172;28;19953;-90
2022/11/29 09:42:49;;;;;;;;;;;9.20;76.30;;;;;;5031897;28;19947;-89
2022/11/29 09:45:19;;;;;;;;;;;9.10;76.30;;;;;;5030685;28;19998;-89
2022/11/29 09:47:55;;;;;;;;;;;9.00;75.70;;;;;;5030447;28;19943;-89
2022/11/29 09:50:41;;;;;;;;;;;9.00;76.20;;;;;;5031911;28;19944;-90
2022/11/29 09:53:13;;;;;;;;;;;9.00;75.70;;;;;;5031378;28;20029;-89
2022/11/29 09:55:47;;;;;;;;;;;9.10;76.20;;;;;;5029248;28;19996;-90
2022/11/29 09:58:15;;;;;;;;;;;9.30;75.50;;;;;;5029812;28;20041;-90
2022/11/29 10:00:45;;;;;;;;;;;9.40;73.90;;;;;;5031465;28;19990;-90
2022/11/29 10:03:18;;;;;;;;;;;9.30;74.40;;;;;;5032435;28;19972;-90
2022/11/29 10:05:46;;;;;;;;;;;9.40;73.40;;;;;;5040729;28;20003;-89
2022/11/29 10:08:19;;;;;;;;;;;9.40;73.50;;;;;;5013327;28;19981;-88
2022/11/29 10:10:46;;;;;;;;;;;9.50;72.70;;;;;;5031100;28;20043;-89
2022/11/29 10:13:11;;;;;;;;;;;9.40;72.70;;;;;;5033856;28;20502;-88
2022/11/29 10:15:39;;;;;;;;;;;9.30;73.20;;;;;;5033396;28;20071;-88
2022/11/29 10:18:19;;;;;;;;;;;9.30;73.20;;;;;;5034274;28;19950;-89
2022/11/29 10:20:48;;;;;;;;;;;9.20;73.70;;;;;;5032659;28;19954;-88
2022/11/29 10:23:19;;;;;;;;;;;9.30;73.90;;;;;;5031466;28;19983;-88
2022/11/29 10:25:45;;;;;;;;;;;9.50;73.90;;;;;;5034800;28;19944;-88
2022/11/29 10:28:18;;;;;;;;;;;9.80;72.00;;;;;;5029823;28;19940;-88
2022/11/29 10:30:44;;;;;;;;;;;9.90;71.30;;;;;;5034893;28;19970;-88
2022/11/29 10:33:14;;;;;;;;;;;9.90;70.70;;;;;;5032297;28;20401;-90
2022/11/29 10:35:40;;;;;;;;;;;9.90;71.00;;;;;;5032528;28;19950;-90
2022/11/29 10:38:06;;;;;;;;;;;9.90;72.00;;;;;;5025368;28;19943;-90
2022/11/29 10:40:33;;;;;;;;;;;9.80;73.10;;;;;;5031345;28;19956;-90
2022/11/29 10:43:00;;;;;;;;;;;9.50;72.40;;;;;;5031792;28;19943;-90
2022/11/29 10:45:25;;;;;;;;;;;9.20;73.20;;;;;;5032539;28;20474;-90
2022/11/29 10:47:52;;;;;;;;;;;9.20;73.80;;;;;;5033925;28;20059;-89
2022/11/29 10:50:20;;;;;;;;;;;9.20;73.90;;;;;;5030080;28;19969;-89
2022/11/29 10:52:45;;;;;;;;;;;9.20;73.90;;;;;;5025862;28;20000;-89
2022/11/29 10:55:12;;;;;;;;;;;9.50;73.00;;;;;;5033503;28;19950;-89
2022/11/29 10:57:58;;;;;;;;;;;9.70;72.60;;;;;;5034348;28;19946;-89
2022/11/29 11:00:23;;;;;;;;;;;9.90;72.70;;;;;;5031945;28;19987;-89
2022/11/29 11:02:49;;;;;;;;;;;9.90;72.80;;;;;;5031496;28;19980;-89
2022/11/29 11:05:24;;;;;;;;;;;10.10;71.20;;;;;;5032594;28;19986;-89
2022/11/29 11:07:57;;;;;;;;;;;10.20;70.80;;;;;;5035006;28;19940;-89
2022/11/29 11:10:26;;;;;;;;;;;9.90;70.40;;;;;;5032478;28;19945;-90
2022/11/29 11:13:02;;;;;;;;;;;9.90;71.10;;;;;;5015051;28;19962;-90
2022/11/29 11:15:29;;;;;;;;;;;9.70;71.30;;;;;;5023638;28;20356;-89
2022/11/29 11:17:59;;;;;;;;;;;9.60;70.80;;;;;;5034318;28;19950;-89
2022/11/29 11:20:26;;;;;;;;;;;9.70;71.30;;;;;;5034417;28;20043;-90
2022/11/29 11:22:57;;;;;;;;;;;9.80;71.50;;;;;;5034418;28;19947;-90
2022/11/29 11:25:24;;;;;;;;;;;9.80;71.50;;;;;;5034650;28;19967;-90
2022/11/29 11:27:50;;;;;;;;;;;9.90;71.50;;;;;;5034618;28;19941;-90
2022/11/29 11:30:27;;;;;;;;;;;10.10;70.90;;;;;;5034385;28;19939;-90
2022/11/29 11:33:25;;;;;;;;;;;10.30;69.70;;;;;;5034340;28;19968;-90
2022/11/29 11:36:00;;;;;;;;;;;10.30;70.10;;;;;;5011563;28;19946;-89
2022/11/29 11:38:26;;;;;;;;;;;10.20;70.40;;;;;;5034389;28;19944;-90
2022/11/29 11:41:10;;;;;;;;;;;10.30;71.00;;;;;;5033833;28;19989;-89
2022/11/29 11:43:36;;;;;;;;;;;10.40;70.30;;;;;;5033948;28;20401;-89
2022/11/29 11:46:02;;;;;;;;;;;10.30;70.00;;;;;;5016483;28;19940;-89
2022/11/29 11:48:28;;;;;;;;;;;10.10;70.20;;;;;;5034214;28;19942;-89
2022/11/29 11:50:58;;;;;;;;;;;10.00;71.50;;;;;;5033993;28;19941;-90
2022/11/29 11:53:29;;;;;;;;;;;9.90;71.40;;;;;;5033927;28;20040;-90
2022/11/29 11:55:58;;;;;;;;;;;9.90;71.70;;;;;;5034095;28;19939;-90
2022/11/29 11:58:26;;;;;;;;;;;9.90;71.70;;;;;;5033317;28;19948;-90
2022/11/29 12:00:51;;;;;;;;;;;10.10;71.90;;;;;;5016187;28;19947;-90
2022/11/29 12:03:29;;;;;;;;;;;10.40;71.60;;;;;;5033910;28;19935;-90
2022/11/29 12:05:57;;;;;;;;;;;10.60;70.10;;;;;;5033667;28;19945;-90
2022/11/29 12:08:25;;;;;;;;;;;10.80;69.20;;;;;;5033710;28;19940;-89
2022/11/29 12:10:53;;;;;;;;;;;10.60;70.70;;;;;;5033889;28;19942;-89
2022/11/29 12:13:23;;;;;;;;;;;10.50;70.30;;;;;;5033286;28;20408;-90
2022/11/29 12:15:49;;;;;;;;;;;10.40;70.60;;;;;;5033517;28;19936;-90
2022/11/29 12:18:20;;;;;;;;;;;10.30;72.00;;;;;;5032981;28;19987;-90
2022/11/29 12:20:51;;;;;;;;;;;10.20;72.50;;;;;;5032417;28;19950;-89
2022/11/29 12:23:22;;;;;;;;;;;10.10;72.80;;;;;;5014258;28;19969;-90
2022/11/29 12:25:54;;;;;;;;;;;10.10;73.90;;;;;;5032397;28;19973;-90
2022/11/29 12:28:20;;;;;;;;;;;10.10;74.40;;;;;;5032307;28;19942;-89
2022/11/29 12:30:55;;;;;;;;;;;10.10;74.10;;;;;;5026236;28;19945;-90
2022/11/29 12:33:40;;;;;;;;;;;10.20;74.10;;;;;;5027157;28;20053;-90
2022/11/29 12:36:12;;;;;;;;;;;10.60;72.20;;;;;;5028030;28;20042;-90
2022/11/29 12:38:41;;;;;;;;;;;10.80;71.70;;;;;;5027555;28;19966;-89
2022/11/29 12:41:06;;;;;;;;;;;10.70;70.60;;;;;;5031298;28;20397;-89
2022/11/29 12:43:51;;;;;;;;;;;10.70;70.50;;;;;;5029541;28;19961;-90
2022/11/29 12:46:23;;;;;;;;;;;10.60;71.20;;;;;;5032207;28;19944;-89
2022/11/29 12:48:55;;;;;;;;;;;10.40;71.70;;;;;;5030911;28;19943;-90
2022/11/29 12:51:21;;;;;;;;;;;10.30;72.40;;;;;;5031189;28;19954;-89
2022/11/29 12:54:10;;;;;;;;;;;10.20;73.30;;;;;;5011169;28;20424;-89
2022/11/29 12:56:39;;;;;;;;;;;10.10;74.10;;;;;;5026212;28;19948;-89
2022/11/29 12:59:09;;;;;;;;;;;10.30;73.30;;;;;;5031599;28;19952;-89
2022/11/29 13:01:51;;;;;;;;;;;10.50;71.90;;;;;;5028916;28;20038;-89
2022/11/29 13:04:35;;;;;;;;;;;10.60;72.20;;;;;;5026524;28;20464;-89
2022/11/29 13:07:07;;;;;;;;;;;10.70;71.80;;;;;;5025664;28;19945;-90
2022/11/29 13:09:41;;;;;;;;;;;10.80;71.20;;;;;;5024998;28;19975;-90
2022/11/29 13:12:15;;;;;;;;;;;10.90;71.70;;;;;;5029075;28;19959;-90
2022/11/29 13:14:56;;;;;;;;;;;11.00;71.40;;;;;;5028094;28;19953;-89
2022/11/29 13:17:22;;;;;;;;;;;10.60;71.60;;;;;;5031532;28;20120;-89
2022/11/29 13:19:58;;;;;;;;;;;10.50;71.90;;;;;;5029422;28;20044;-89
2022/11/29 13:22:55;;;;;;;;;;;10.30;72.50;;;;;;5028788;28;19950;-90
2022/11/29 13:25:27;;;;;;;;;;;10.30;73.00;;;;;;4975358;28;19958;-90
2022/11/29 13:28:00;;;;;;;;;;;10.40;73.20;;;;;;5031362;28;19950;-91
2022/11/29 13:30:26;;;;;;;;;;;10.40;73.20;;;;;;5027137;28;19942;-90
2022/11/29 13:32:51;;;;;;;;;;;10.60;72.30;;;;;;5029088;28;19967;-90
2022/11/29 13:35:17;;;;;;;;;;;10.70;71.60;;;;;;5031596;28;19940;-90
2022/11/29 13:37:50;;;;;;;;;;;10.80;71.50;;;;;;5026000;28;19957;-90
2022/11/29 13:40:36;;;;;;;;;;;11.10;70.20;;;;;;5035257;28;20033;-90
2022/11/29 13:43:04;;;;;;;;;;;11.20;69.20;;;;;;5036267;28;19945;-90
2022/11/29 13:45:36;;;;;;;;;;;11.30;68.70;;;;;;5032906;28;20418;-90
2022/11/29 13:48:19;;;;;;;;;;;11.30;68.60;;;;;;5032902;28;19951;-90
2022/11/29 13:50:45;;;;;;;;;;;11.00;69.10;;;;;;5027767;28;19940;-90
2022/11/29 13:53:11;;;;;;;;;;;10.70;70.30;;;;;;5033817;28;20457;-90
2022/11/29 13:55:42;;;;;;;;;;;10.40;71.10;;;;;;5019913;28;20428;-90
2022/11/29 13:58:28;;;;;;;;;;;10.40;72.00;;;;;;5032669;28;19945;-90
2022/11/29 14:00:58;;;;;;;;;;;10.30;72.90;;;;;;5031186;28;19936;-90
2022/11/29 14:03:24;;;;;;;;;;;10.40;71.80;;;;;;5035386;28;19940;-90
2022/11/29 14:05:53;;;;;;;;;;;10.40;71.90;;;;;;5034893;28;19950;-89
2022/11/29 14:08:24;;;;;;;;;;;10.60;71.50;;;;;;5035098;28;20474;-90
2022/11/29 14:10:52;;;;;;;;;;;10.80;70.80;;;;;;5034378;28;19941;-90
2022/11/29 14:13:17;;;;;;;;;;;10.90;70.50;;;;;;5034732;28;19959;-90
2022/11/29 14:15:43;;;;;;;;;;;11.00;70.30;;;;;;5033948;28;20355;-90
2022/11/29 14:18:28;;;;;;;;;;;11.00;70.10;;;;;;5034255;28;20127;-89
2022/11/29 14:20:55;;;;;;;;;;;11.00;70.10;;;;;;5033376;28;19941;-90
2022/11/29 14:23:39;;;;;;;;;;;11.10;69.90;;;;;;5012184;28;19981;-89
2022/11/29 14:26:04;;;;;;;;;;;11.20;69.50;;;;;;5032920;28;19944;-89
2022/11/29 14:28:31;;;;;;;;;;;11.00;69.90;;;;;;5030389;28;19952;-89
2022/11/29 14:31:03;;;;;;;;;;;10.80;70.70;;;;;;5031671;28;20421;-89
2022/11/29 14:33:47;;;;;;;;;;;10.60;71.70;;;;;;5029033;28;19984;-90
2022/11/29 14:36:13;;;;;;;;;;;10.40;72.30;;;;;;5030037;28;19956;-89
2022/11/29 14:38:54;;;;;;;;;;;10.30;72.90;;;;;;5032603;28;19967;-89
2022/11/29 14:41:25;;;;;;;;;;;10.20;73.40;;;;;;5032559;28;19985;-89
2022/11/29 14:44:02;;;;;;;;;;;10.00;74.20;;;;;;5033910;28;19948;-89
2022/11/29 14:46:30;;;;;;;;;;;10.00;74.70;;;;;;5031273;28;20392;-89
2022/11/29 14:48:55;;;;;;;;;;;9.90;75.90;;;;;;5033937;28;19969;-89
2022/11/29 14:51:25;;;;;;;;;;;9.80;76.00;;;;;;5031527;28;20390;-89
2022/11/29 14:54:02;;;;;;;;;;;9.80;75.50;;;;;;5033177;28;19963;-89
2022/11/29 14:56:28;;;;;;;;;;;9.70;73.90;;;;;;5032259;28;19950;-89